createdAt,value
2022-09-11T00:02:02.027Z,69.70
2022-09-11T00:04:28.426Z,69.95
2022-09-11T00:06:54.820Z,69.66
2022-09-11T00:09:21.219Z,69.94
2022-09-11T00:11:47.539Z,69.81
2022-09-11T00:14:14.860Z,69.62
2022-09-11T00:16:43.102Z,69.68
2022-09-11T00:19:12.034Z,69.84
2022-09-11T00:21:38.887Z,69.89
2022-09-11T00:24:05.347Z,69.70
2022-09-11T00:26:31.850Z,69.82
2022-09-11T00:28:58.257Z,69.59
2022-09-11T00:31:25.873Z,69.73
2022-09-11T00:33:52.450Z,69.78
2022-09-11T00:36:19.966Z,69.75
2022-09-11T00:38:47.754Z,69.69
2022-09-11T00:41:16.170Z,69.76
2022-09-11T00:44:02.438Z,69.64
2022-09-11T00:46:37.325Z,69.73
2022-09-11T00:49:11.618Z,69.77
2022-09-11T00:51:38.435Z,69.77
2022-09-11T00:54:05.137Z,69.83
2022-09-11T00:56:35.944Z,69.62
2022-09-11T00:59:02.795Z,69.62
2022-09-11T01:01:29.167Z,69.52
2022-09-11T01:03:56.099Z,69.57
2022-09-11T01:06:23.300Z,69.65
2022-09-11T01:08:49.666Z,69.73
2022-09-11T01:11:25.281Z,69.62
2022-09-11T01:14:17.760Z,69.70
2022-09-11T01:16:49.142Z,69.82
2022-09-11T01:19:24.852Z,69.43
2022-09-11T01:22:00.268Z,69.51
2022-09-11T01:24:26.601Z,69.72
2022-09-11T01:26:52.929Z,69.46
2022-09-11T01:29:29.134Z,69.41
2022-09-11T01:31:55.485Z,69.46
2022-09-11T01:34:35.950Z,69.54
2022-09-11T01:37:13.741Z,69.53
2022-09-11T01:39:46.582Z,69.42
2022-09-11T01:42:16.303Z,69.35
2022-09-11T01:44:48.950Z,69.38
2022-09-11T01:47:16.840Z,69.40
2022-09-11T01:50:03.662Z,69.31
2022-09-11T01:52:42.423Z,69.34
2022-09-11T01:55:21.083Z,69.29
2022-09-11T01:58:06.640Z,69.28
2022-09-11T02:00:35.562Z,69.13
2022-09-11T02:03:18.125Z,69.23
2022-09-11T02:05:47.719Z,69.10
2022-09-11T02:08:16.603Z,69.15
2022-09-11T02:10:52.037Z,69.12
2022-09-11T02:13:29.773Z,69.00
2022-09-11T02:16:00.178Z,69.18
2022-09-11T02:18:29.789Z,69.09
2022-09-11T02:20:56.107Z,69.29
2022-09-11T02:23:22.476Z,69.31
2022-09-11T02:25:48.836Z,69.30
2022-09-11T02:28:15.163Z,69.32
2022-09-11T02:30:41.999Z,69.27
2022-09-11T02:33:28.026Z,69.33
2022-09-11T02:35:59.581Z,69.44
2022-09-11T02:38:30.017Z,69.40
2022-09-11T02:41:09.143Z,69.31
2022-09-11T02:43:35.419Z,69.28
2022-09-11T02:46:20.129Z,69.10
2022-09-11T02:49:06.798Z,68.96
2022-09-11T02:51:48.432Z,69.30
2022-09-11T02:54:33.140Z,69.31
2022-09-11T02:57:09.981Z,69.43
2022-09-11T02:59:39.447Z,69.38
2022-09-11T03:02:09.935Z,69.11
2022-09-11T03:04:37.239Z,69.05
2022-09-11T03:07:03.682Z,69.25
2022-09-11T03:09:30.087Z,69.12
2022-09-11T03:11:56.492Z,69.30
2022-09-11T03:14:22.902Z,69.11
2022-09-11T03:16:50.060Z,69.24
2022-09-11T03:19:16.428Z,69.16
2022-09-11T03:21:42.999Z,69.11
2022-09-11T03:24:10.174Z,69.21
2022-09-11T03:26:37.194Z,69.36
2022-09-11T03:29:03.898Z,69.05
2022-09-11T03:31:30.530Z,69.08
2022-09-11T03:33:57.774Z,69.01
2022-09-11T03:36:24.143Z,69.19
2022-09-11T03:38:51.197Z,69.28
2022-09-11T03:41:17.532Z,69.21
2022-09-11T03:43:44.133Z,69.28
2022-09-11T03:46:10.490Z,69.22
2022-09-11T03:48:36.855Z,69.05
2022-09-11T03:51:05.693Z,69.16
2022-09-11T03:53:35.574Z,69.31
2022-09-11T03:56:03.967Z,69.35
2022-09-11T03:58:30.337Z,69.32
2022-09-11T04:00:56.730Z,69.20
2022-09-11T04:03:23.150Z,69.26
2022-09-11T04:05:57.021Z,69.19
2022-09-11T04:08:23.333Z,69.27
2022-09-11T04:10:49.678Z,69.29
2022-09-11T04:13:16.725Z,69.37
2022-09-11T04:15:43.071Z,69.24
2022-09-11T04:18:09.517Z,69.31
2022-09-11T04:20:38.779Z,69.40
2022-09-11T04:23:05.227Z,69.34
2022-09-11T04:25:31.598Z,69.41
2022-09-11T04:27:57.943Z,69.49
2022-09-11T04:30:24.286Z,69.55
2022-09-11T04:32:50.631Z,69.43
2022-09-11T04:35:16.963Z,69.43
2022-09-11T04:37:43.304Z,69.43
2022-09-11T04:40:10.046Z,69.54
2022-09-11T04:42:36.431Z,69.35
2022-09-11T04:45:03.334Z,69.30
2022-09-11T04:47:30.154Z,69.60
2022-09-11T04:49:57.438Z,69.49
2022-09-11T04:52:24.239Z,69.39
2022-09-11T04:54:50.576Z,69.59
2022-09-11T04:57:16.915Z,69.46
2022-09-11T04:59:43.270Z,69.58
2022-09-11T05:02:09.674Z,69.32
2022-09-11T05:04:36.149Z,69.46
2022-09-11T05:07:02.709Z,69.56
2022-09-11T05:09:29.166Z,69.43
2022-09-11T05:11:56.995Z,69.48
2022-09-11T05:14:23.326Z,69.56
2022-09-11T05:16:49.739Z,69.37
2022-09-11T05:19:16.068Z,69.33
2022-09-11T05:21:42.467Z,69.41
2022-09-11T05:24:08.868Z,69.31
2022-09-11T05:26:36.913Z,69.40
2022-09-11T05:29:07.587Z,69.53
2022-09-11T05:31:33.954Z,69.46
2022-09-11T05:34:00.640Z,69.46
2022-09-11T05:36:27.787Z,69.51
2022-09-11T05:38:54.339Z,69.46
2022-09-11T05:41:20.747Z,69.56
2022-09-11T05:43:47.098Z,69.41
2022-09-11T05:46:14.901Z,69.46
2022-09-11T05:48:41.263Z,69.53
2022-09-11T05:51:10.570Z,69.42
2022-09-11T05:53:37.919Z,69.43
2022-09-11T05:56:15.878Z,69.54
2022-09-11T05:58:43.606Z,69.46
2022-09-11T06:01:11.473Z,69.46
2022-09-11T06:03:38.728Z,69.25
2022-09-11T06:06:06.800Z,69.60
2022-09-11T06:08:34.595Z,69.33
2022-09-11T06:11:02.736Z,69.62
2022-09-11T06:13:30.063Z,69.49
2022-09-11T06:15:56.498Z,69.41
2022-09-11T06:18:22.887Z,69.34
2022-09-11T06:20:56.572Z,69.59
2022-09-11T06:23:23.044Z,69.55
2022-09-11T06:25:49.431Z,69.61
2022-09-11T06:28:16.035Z,69.56
2022-09-11T06:30:42.389Z,69.36
2022-09-11T06:33:08.790Z,69.47
2022-09-11T06:35:35.122Z,69.52
2022-09-11T06:38:02.792Z,69.58
2022-09-11T06:40:29.175Z,69.42
2022-09-11T06:42:55.495Z,69.65
2022-09-11T06:45:21.832Z,69.54
2022-09-11T06:47:48.197Z,69.65
2022-09-11T06:50:14.633Z,69.42
2022-09-11T06:52:42.968Z,69.56
2022-09-11T06:55:13.411Z,69.69
2022-09-11T06:57:42.166Z,69.54
2022-09-11T07:00:09.655Z,69.64
2022-09-11T07:02:36.058Z,69.62
2022-09-11T07:05:02.487Z,69.65
2022-09-11T07:07:29.015Z,69.40
2022-09-11T07:09:55.507Z,69.41
2022-09-11T07:12:24.003Z,69.46
2022-09-11T07:14:50.420Z,69.47
2022-09-11T07:17:16.822Z,69.44
2022-09-11T07:19:43.318Z,69.67
2022-09-11T07:22:10.154Z,69.38
2022-09-11T07:24:36.495Z,69.49
2022-09-11T07:27:02.918Z,69.59
2022-09-11T07:29:29.404Z,69.51
2022-09-11T07:31:57.823Z,69.68
2022-09-11T07:34:26.598Z,69.68
2022-09-11T07:36:53.013Z,69.74
2022-09-11T07:39:19.389Z,69.74
2022-09-11T07:41:45.839Z,69.62
2022-09-11T07:44:12.219Z,69.74
2022-09-11T07:46:41.463Z,69.72
2022-09-11T07:49:10.087Z,69.75
2022-09-11T07:51:37.290Z,69.76
2022-09-11T07:54:03.843Z,69.59
2022-09-11T07:56:31.158Z,69.74
2022-09-11T07:58:57.542Z,69.62
2022-09-11T08:01:25.501Z,69.62
2022-09-11T08:03:57.036Z,69.77
2022-09-11T08:06:24.402Z,69.69
2022-09-11T08:08:54.888Z,69.72
2022-09-11T08:11:21.677Z,69.58
2022-09-11T08:13:50.963Z,69.72
2022-09-11T08:16:18.210Z,69.53
2022-09-11T08:18:45.118Z,69.48
2022-09-11T08:21:13.014Z,69.46
2022-09-11T08:23:43.234Z,69.23
2022-09-11T08:26:14.303Z,69.44
2022-09-11T08:28:43.151Z,69.38
2022-09-11T08:31:09.925Z,69.18
2022-09-11T08:33:36.278Z,69.32
2022-09-11T08:36:04.242Z,69.16
2022-09-11T08:38:30.642Z,69.08
2022-09-11T08:41:11.169Z,69.09
2022-09-11T08:43:44.543Z,69.03
2022-09-11T08:46:12.057Z,68.90
2022-09-11T08:48:49.810Z,69.13
2022-09-11T08:51:17.443Z,69.08
2022-09-11T08:53:45.472Z,69.15
2022-09-11T08:56:15.577Z,69.15
2022-09-11T08:59:00.639Z,68.94
2022-09-11T09:01:39.146Z,69.03
2022-09-11T09:04:06.578Z,69.13
2022-09-11T09:06:51.715Z,69.29
2022-09-11T09:09:36.981Z,69.25
2022-09-11T09:12:21.756Z,69.15
2022-09-11T09:14:56.441Z,68.98
2022-09-11T09:17:33.113Z,69.08
2022-09-11T09:20:01.383Z,69.28
2022-09-11T09:22:30.735Z,69.30
2022-09-11T09:25:00.742Z,69.28
2022-09-11T09:27:47.066Z,69.22
2022-09-11T09:30:15.449Z,69.68
2022-09-11T09:32:45.613Z,69.53
2022-09-11T09:35:16.797Z,69.47
2022-09-11T09:37:43.959Z,69.56
2022-09-11T09:40:11.002Z,69.57
2022-09-11T09:42:49.597Z,69.60
2022-09-11T09:45:27.995Z,69.49
2022-09-11T09:47:54.426Z,69.70
2022-09-11T09:50:29.983Z,69.74
2022-09-11T09:53:12.979Z,69.63
2022-09-11T09:55:40.558Z,69.85
2022-09-11T09:58:09.804Z,69.45
2022-09-11T10:00:37.576Z,69.38
2022-09-11T10:03:21.381Z,69.74
2022-09-11T10:05:48.964Z,69.66
2022-09-11T10:08:35.525Z,69.54
2022-09-11T10:11:03.805Z,69.46
2022-09-11T10:13:34.749Z,69.56
2022-09-11T10:16:05.317Z,69.59
2022-09-11T10:18:35.861Z,69.75
2022-09-11T10:21:21.803Z,69.64
2022-09-11T10:23:58.498Z,69.71
2022-09-11T10:26:49.873Z,69.62
2022-09-11T10:29:27.411Z,69.67
2022-09-11T10:32:04.378Z,69.62
2022-09-11T10:34:38.000Z,69.82
2022-09-11T10:37:17.383Z,69.87
2022-09-11T10:39:46.468Z,69.83
2022-09-11T10:42:16.789Z,69.84
2022-09-11T10:44:47.091Z,69.70
2022-09-11T10:47:13.564Z,69.92
2022-09-11T10:49:40.024Z,69.69
2022-09-11T10:52:09.411Z,69.61
2022-09-11T10:54:48.175Z,69.61
2022-09-11T10:57:37.830Z,69.79
2022-09-11T11:00:09.416Z,69.59
2022-09-11T11:02:38.700Z,69.64
2022-09-11T11:05:06.414Z,69.51
2022-09-11T11:07:42.718Z,69.69
2022-09-11T11:10:24.496Z,69.62
2022-09-11T11:13:14.564Z,69.52
2022-09-11T11:16:01.272Z,69.58
2022-09-11T11:18:33.941Z,69.62
2022-09-11T11:21:15.631Z,69.44
2022-09-11T11:23:45.154Z,69.50
2022-09-11T11:26:17.573Z,69.38
2022-09-11T11:29:04.213Z,69.31
2022-09-11T11:31:37.532Z,69.38
2022-09-11T11:34:11.732Z,69.32
2022-09-11T11:36:41.069Z,69.33
2022-09-11T11:39:15.477Z,69.31
2022-09-11T11:41:45.259Z,69.25
2022-09-11T11:44:15.851Z,68.92
2022-09-11T11:46:44.848Z,69.00
2022-09-11T11:49:15.980Z,69.10
2022-09-11T11:51:55.250Z,69.25
2022-09-11T11:54:34.080Z,69.10
2022-09-11T11:57:07.711Z,68.97
2022-09-11T11:59:52.128Z,69.28
2022-09-11T12:02:24.788Z,69.33
2022-09-11T12:05:03.028Z,69.31
2022-09-11T12:07:31.464Z,69.10
2022-09-11T12:09:59.314Z,69.15
2022-09-11T12:12:28.115Z,69.33
2022-09-11T12:14:56.679Z,69.45
2022-09-11T12:17:22.974Z,69.28
2022-09-11T12:20:08.252Z,69.41
2022-09-11T12:22:38.331Z,69.34
2022-09-11T12:25:05.792Z,69.55
2022-09-11T12:27:34.974Z,69.51
2022-09-11T12:30:09.560Z,69.55
2022-09-11T12:32:46.460Z,69.46
2022-09-11T12:35:15.859Z,69.66
2022-09-11T12:37:43.155Z,69.54
2022-09-11T12:40:22.988Z,69.52
2022-09-11T12:42:57.601Z,69.74
2022-09-11T12:45:31.660Z,69.59
2022-09-11T12:48:06.365Z,69.73
2022-09-11T12:50:33.239Z,69.55
2022-09-11T12:53:02.447Z,69.68
2022-09-11T12:55:31.271Z,69.92
2022-09-11T12:58:02.586Z,69.96
2022-09-11T13:00:55.591Z,70.20
2022-09-11T13:03:24.587Z,69.98
2022-09-11T13:05:55.576Z,69.79
2022-09-11T13:08:24.173Z,70.05
2022-09-11T13:10:50.644Z,70.03
2022-09-11T13:13:35.586Z,70.08
2022-09-11T13:16:20.555Z,70.03
2022-09-11T13:18:46.903Z,70.04
2022-09-11T13:21:14.702Z,70.08
2022-09-11T13:23:42.913Z,70.17
2022-09-11T13:26:15.091Z,70.21
2022-09-11T13:28:49.802Z,70.25
2022-09-11T13:31:24.372Z,70.20
2022-09-11T13:33:51.724Z,70.03
2022-09-11T13:36:21.047Z,69.99
2022-09-11T13:38:49.903Z,70.23
2022-09-11T13:41:18.282Z,70.09
2022-09-11T13:43:45.799Z,70.13
2022-09-11T13:46:16.011Z,70.13
2022-09-11T13:48:49.967Z,70.21
2022-09-11T13:51:18.946Z,70.17
2022-09-11T13:53:46.536Z,70.17
2022-09-11T13:56:21.361Z,70.21
2022-09-11T13:58:52.907Z,70.24
2022-09-11T14:01:20.236Z,70.14
2022-09-11T14:03:48.921Z,70.18
2022-09-11T14:06:17.540Z,70.12
2022-09-11T14:08:49.945Z,70.16
2022-09-11T14:11:34.419Z,70.13
2022-09-11T14:14:00.994Z,70.38
2022-09-11T14:16:31.791Z,70.35
2022-09-11T14:18:59.827Z,70.15
2022-09-11T14:21:31.418Z,70.21
2022-09-11T14:23:58.442Z,70.24
2022-09-11T14:26:26.410Z,70.46
2022-09-11T14:28:55.777Z,70.22
2022-09-11T14:31:29.463Z,70.10
2022-09-11T14:34:16.196Z,70.26
2022-09-11T14:36:44.563Z,70.32
2022-09-11T14:39:26.258Z,70.39
2022-09-11T14:41:53.146Z,70.41
2022-09-11T14:44:21.062Z,70.24
2022-09-11T14:46:49.659Z,70.14
2022-09-11T14:49:16.239Z,70.32
2022-09-11T14:51:43.272Z,70.51
2022-09-11T14:54:14.778Z,70.46
2022-09-11T14:56:41.575Z,70.51
2022-09-11T14:59:08.087Z,70.38
2022-09-11T15:01:35.679Z,70.46
2022-09-11T15:04:03.242Z,70.41
2022-09-11T15:06:29.695Z,70.51
2022-09-11T15:08:56.347Z,70.47
2022-09-11T15:11:22.678Z,70.46
2022-09-11T15:14:13.401Z,70.64
2022-09-11T15:16:35.463Z,70.44
2022-09-11T15:19:01.805Z,70.62
2022-09-11T15:21:28.347Z,70.59
2022-09-11T15:23:55.298Z,70.35
2022-09-11T15:26:21.818Z,70.51
2022-09-11T15:28:50.907Z,70.49
2022-09-11T15:31:18.560Z,70.70
2022-09-11T15:33:49.522Z,70.54
2022-09-11T15:36:16.033Z,70.75
2022-09-11T15:38:42.601Z,70.43
2022-09-11T15:41:10.309Z,70.40
2022-09-11T15:43:39.331Z,70.58
2022-09-11T15:46:12.245Z,70.56
2022-09-11T15:48:39.043Z,70.59
2022-09-11T15:51:08.274Z,70.57
2022-09-11T15:53:37.086Z,70.51
2022-09-11T15:56:11.002Z,70.28
2022-09-11T15:58:39.993Z,70.77
2022-09-11T16:01:06.992Z,70.36
2022-09-11T16:03:33.921Z,70.51
2022-09-11T16:06:01.199Z,70.41
2022-09-11T16:08:28.062Z,69.93
2022-09-11T16:10:54.535Z,70.31
2022-09-11T16:13:21.035Z,70.51
2022-09-11T16:15:49.254Z,70.47
2022-09-11T16:18:19.133Z,70.51
2022-09-11T16:20:55.050Z,70.42
2022-09-11T16:23:21.980Z,70.64
2022-09-11T16:25:48.830Z,70.69
2022-09-11T16:28:15.163Z,70.32
2022-09-11T16:30:43.832Z,70.62
2022-09-11T16:33:12.655Z,70.43
2022-09-11T16:35:39.333Z,70.89
2022-09-11T16:38:07.465Z,70.71
2022-09-11T16:40:35.386Z,70.72
2022-09-11T16:43:02.374Z,70.61
2022-09-11T16:45:28.772Z,70.63
2022-09-11T16:47:57.186Z,70.67
2022-09-11T16:50:24.335Z,70.74
2022-09-11T16:52:51.026Z,71.05
2022-09-11T16:55:20.643Z,70.85
2022-09-11T16:57:48.051Z,70.90
2022-09-11T17:00:14.672Z,70.87
2022-09-11T17:02:41.065Z,71.09
2022-09-11T17:05:08.248Z,71.11
2022-09-11T17:07:35.710Z,70.83
2022-09-11T17:10:02.588Z,70.90
2022-09-11T17:12:28.954Z,71.09
2022-09-11T17:14:55.289Z,70.94
2022-09-11T17:17:23.207Z,70.98
2022-09-11T17:19:51.292Z,71.05
2022-09-11T17:22:17.908Z,70.98
2022-09-11T17:24:44.534Z,71.09
2022-09-11T17:27:10.979Z,71.07
2022-09-11T17:29:40.169Z,71.21
2022-09-11T17:32:27.243Z,71.31
2022-09-11T17:34:55.060Z,71.21
2022-09-11T17:37:21.391Z,71.19
2022-09-11T17:39:47.808Z,70.87
2022-09-11T17:42:14.178Z,71.29
2022-09-11T17:44:41.480Z,71.29
2022-09-11T17:47:08.298Z,71.21
2022-09-11T17:49:34.714Z,71.26
2022-09-11T17:52:01.143Z,71.05
2022-09-11T17:54:28.215Z,70.98
2022-09-11T17:56:55.641Z,71.05
2022-09-11T17:59:22.264Z,71.04
2022-09-11T18:01:48.723Z,71.26
2022-09-11T18:04:15.205Z,71.10
2022-09-11T18:06:41.975Z,71.18
2022-09-11T18:09:15.112Z,71.18
2022-09-11T18:11:43.124Z,71.12
2022-09-11T18:14:10.047Z,71.20
2022-09-11T18:16:36.827Z,71.13
2022-09-11T18:19:05.496Z,71.03
2022-09-11T18:21:33.261Z,71.12
2022-09-11T18:24:01.337Z,71.03
2022-09-11T18:26:29.820Z,71.11
2022-09-11T18:28:57.700Z,71.00
2022-09-11T18:31:24.270Z,71.13
2022-09-11T18:33:55.359Z,71.34
2022-09-11T18:36:23.585Z,71.15
2022-09-11T18:38:57.526Z,71.07
2022-09-11T18:41:24.512Z,71.14
2022-09-11T18:44:00.500Z,71.09
2022-09-11T18:46:27.416Z,71.15
2022-09-11T18:48:55.944Z,71.03
2022-09-11T18:51:22.457Z,71.09
2022-09-11T18:53:51.900Z,71.11
2022-09-11T18:56:18.916Z,71.07
2022-09-11T18:58:47.817Z,71.13
2022-09-11T19:01:15.684Z,71.12
2022-09-11T19:03:43.672Z,71.25
2022-09-11T19:06:14.335Z,71.13
2022-09-11T19:08:41.511Z,71.24
2022-09-11T19:11:09.444Z,71.27
2022-09-11T19:13:36.548Z,71.21
2022-09-11T19:16:04.338Z,71.18
2022-09-11T19:18:31.536Z,71.26
2022-09-11T19:21:00.179Z,71.13
2022-09-11T19:23:29.308Z,71.07
2022-09-11T19:25:55.733Z,71.26
2022-09-11T19:28:22.076Z,71.22
2022-09-11T19:30:56.638Z,71.15
2022-09-11T19:33:23.003Z,71.20
2022-09-11T19:35:57.467Z,71.27
2022-09-11T19:38:26.870Z,71.31
2022-09-11T19:40:53.337Z,71.17
2022-09-11T19:43:24.934Z,71.09
2022-09-11T19:45:51.411Z,71.16
2022-09-11T19:48:18.471Z,71.06
2022-09-11T19:50:45.513Z,71.11
2022-09-11T19:53:11.878Z,71.13
2022-09-11T19:55:38.318Z,71.22
2022-09-11T19:58:05.360Z,71.21
2022-09-11T20:00:35.227Z,71.23
2022-09-11T20:03:02.019Z,70.92
2022-09-11T20:05:29.014Z,71.07
2022-09-11T20:07:56.343Z,70.99
2022-09-11T20:10:27.736Z,71.23
2022-09-11T20:12:54.446Z,71.16
2022-09-11T20:15:20.784Z,71.15
2022-09-11T20:17:47.267Z,71.06
2022-09-11T20:20:13.688Z,71.17
2022-09-11T20:22:40.007Z,71.31
2022-09-11T20:25:06.554Z,71.21
2022-09-11T20:27:33.602Z,71.10
2022-09-11T20:30:00.623Z,70.98
2022-09-11T20:32:27.168Z,71.21
2022-09-11T20:34:53.539Z,71.18
2022-09-11T20:37:19.950Z,70.95
2022-09-11T20:39:46.344Z,71.00
2022-09-11T20:42:13.492Z,71.05
2022-09-11T20:44:39.812Z,71.08
2022-09-11T20:47:07.002Z,70.87
2022-09-11T20:49:33.408Z,70.88
2022-09-11T20:52:00.511Z,70.88
2022-09-11T20:54:27.026Z,70.92
2022-09-11T20:56:53.341Z,70.76
2022-09-11T20:59:19.686Z,71.00
2022-09-11T21:01:46.155Z,70.83
2022-09-11T21:04:12.544Z,71.03
2022-09-11T21:06:38.882Z,71.02
2022-09-11T21:09:06.395Z,71.06
2022-09-11T21:11:33.202Z,70.82
2022-09-11T21:13:59.619Z,70.90
2022-09-11T21:16:26.326Z,70.90
2022-09-11T21:18:53.723Z,70.81
2022-09-11T21:21:20.604Z,70.78
2022-09-11T21:23:47.541Z,70.85
2022-09-11T21:26:14.792Z,70.99
2022-09-11T21:28:41.399Z,70.79
2022-09-11T21:31:07.858Z,70.79
2022-09-11T21:33:35.128Z,70.91
2022-09-11T21:36:01.686Z,71.00
2022-09-11T21:38:29.423Z,70.85
2022-09-11T21:40:56.661Z,70.72
2022-09-11T21:43:23.431Z,70.79
2022-09-11T21:45:49.841Z,70.77
2022-09-11T21:48:16.191Z,70.95
2022-09-11T21:50:42.918Z,70.74
2022-09-11T21:53:10.246Z,70.79
2022-09-11T21:55:45.306Z,70.62
2022-09-11T21:58:14.553Z,70.72
2022-09-11T22:00:43.096Z,70.70
2022-09-11T22:03:11.189Z,70.77
2022-09-11T22:05:43.336Z,70.54
2022-09-11T22:08:10.890Z,70.54
2022-09-11T22:10:41.871Z,70.62
2022-09-11T22:13:10.064Z,70.69
2022-09-11T22:15:43.374Z,70.64
2022-09-11T22:18:10.130Z,70.65
2022-09-11T22:20:37.177Z,70.64
2022-09-11T22:23:03.663Z,70.72
2022-09-11T22:25:30.050Z,70.74
2022-09-11T22:27:57.091Z,70.54
2022-09-11T22:30:23.785Z,70.61
2022-09-11T22:32:50.323Z,70.72
2022-09-11T22:35:17.167Z,70.54
2022-09-11T22:37:43.488Z,70.51
2022-09-11T22:40:10.073Z,70.51
2022-09-11T22:42:36.759Z,70.48
2022-09-11T22:45:03.192Z,70.51
2022-09-11T22:47:29.594Z,70.27
2022-09-11T22:49:55.950Z,70.41
2022-09-11T22:52:22.963Z,70.56
2022-09-11T22:54:49.586Z,70.49
2022-09-11T22:57:15.945Z,70.48
2022-09-11T22:59:42.296Z,70.49
2022-09-11T23:02:08.675Z,70.57
2022-09-11T23:04:35.031Z,70.36
2022-09-11T23:07:16.989Z,70.59
2022-09-11T23:09:44.211Z,70.46
2022-09-11T23:12:10.988Z,70.59
2022-09-11T23:14:37.326Z,70.43
2022-09-11T23:17:03.735Z,70.44
2022-09-11T23:19:30.447Z,70.47
2022-09-11T23:21:56.803Z,70.36
2022-09-11T23:24:23.130Z,70.67
2022-09-11T23:26:49.738Z,70.54
2022-09-11T23:29:16.078Z,70.56
2022-09-11T23:31:42.519Z,70.45
2022-09-11T23:34:09.155Z,70.67
2022-09-11T23:36:35.611Z,70.53
2022-09-11T23:39:02.307Z,70.60
2022-09-11T23:41:29.051Z,70.62
2022-09-11T23:43:55.788Z,70.62
2022-09-11T23:46:22.106Z,70.67
2022-09-11T23:48:48.439Z,70.53
2022-09-11T23:51:15.694Z,70.42
2022-09-11T23:53:47.519Z,70.54
2022-09-11T23:56:17.086Z,70.32
2022-09-11T23:58:45.210Z,70.62
